Time;durP1;ratioP1;P1;durP2;ratioP2;P2;SDS_P1;SDS_P2;PMS_P1;PMS_P2;Temp;Humidity;BMP_temperature;BMP_pressure;BME280_temperature;BME280_humidity;BME280_pressure;Samples;Min_cycle;Max_cycle;Signal;HPM_P1;HPM_P2
2023/10/10 00:00:47;;;;;;;17.40;13.05;;;;;;;;;;5072628;28;20444;-62
2023/10/10 00:03:12;;;;;;;23.90;14.20;;;;;;;;;;5073962;28;20399;-62
2023/10/10 00:05:37;;;;;;;27.17;15.60;;;;;;;;;;5072294;28;20115;-62
2023/10/10 00:08:05;;;;;;;25.20;14.32;;;;;;;;;;5073386;28;20047;-61
2023/10/10 00:10:31;;;;;;;22.73;17.23;;;;;;;;;;5072632;28;20123;-66
2023/10/10 00:12:56;;;;;;;30.80;17.48;;;;;;;;;;5073714;28;20471;-60
2023/10/10 00:15:32;;;;;;;25.48;16.50;;;;;;;;;;5071482;28;20029;-60
2023/10/10 00:18:02;;;;;;;22.38;15.80;;;;;;;;;;5073766;28;20017;-60
2023/10/10 00:20:35;;;;;;;24.45;16.60;;;;;;;;;;5072100;28;20069;-60
2023/10/10 00:23:04;;;;;;;19.70;15.05;;;;;;;;;;5073209;28;20491;-60
2023/10/10 00:25:32;;;;;;;28.52;19.63;;;;;;;;;;5072205;28;20044;-61
2023/10/10 00:28:04;;;;;;;31.40;15.80;;;;;;;;;;5072827;28;20472;-60
2023/10/10 00:30:42;;;;;;;23.65;15.50;;;;;;;;;;5072187;28;20123;-60
2023/10/10 00:33:09;;;;;;;25.55;16.40;;;;;;;;;;5073656;28;20020;-60
2023/10/10 00:35:34;;;;;;;30.20;18.67;;;;;;;;;;5071320;28;20047;-60
2023/10/10 00:38:03;;;;;;;28.05;18.70;;;;;;;;;;5072973;28;20020;-60
2023/10/10 00:40:31;;;;;;;;;;;;;;;;;;5072608;28;20036;-60
2023/10/10 00:42:58;;;;;;;23.60;17.95;;;;;;;;;;5072914;28;19909;-65
2023/10/10 00:45:27;;;;;;;31.52;21.17;;;;;;;;;;5060119;28;20037;-60
2023/10/10 00:47:52;;;;;;;;;;;;;;;;;;5053542;28;20048;-60
2023/10/10 00:50:19;;;;;;;43.40;23.63;;;;;;;;;;5051498;28;20288;-61
2023/10/10 00:52:46;;;;;;;35.85;24.38;;;;;;;;;;5053059;28;20024;-60
2023/10/10 00:55:12;;;;;;;35.97;22.52;;;;;;;;;;5051495;28;20025;-60
2023/10/10 00:57:37;;;;;;;44.75;23.88;;;;;;;;;;5052609;28;20053;-60
2023/10/10 01:00:15;;;;;;;38.65;24.60;;;;;;;;;;5053676;28;20055;-60
2023/10/10 01:02:42;;;;;;;37.90;22.70;;;;;;;;;;5072983;28;20039;-60
2023/10/10 01:05:13;;;;;;;37.38;24.70;;;;;;;;;;5070464;28;20997;-61
2023/10/10 01:07:39;;;;;;;37.83;25.77;;;;;;;;;;5071954;28;20060;-68
2023/10/10 01:10:11;;;;;;;40.45;27.20;;;;;;;;;;5070951;28;20068;-61
2023/10/10 01:12:39;;;;;;;42.50;26.48;;;;;;;;;;5072423;28;20032;-61
2023/10/10 01:15:14;;;;;;;45.15;29.13;;;;;;;;;;5070655;28;20063;-61
2023/10/10 01:17:44;;;;;;;40.78;24.42;;;;;;;;;;5072878;28;20031;-61
2023/10/10 01:20:18;;;;;;;47.58;24.27;;;;;;;;;;5070905;28;20029;-61
2023/10/10 01:22:46;;;;;;;55.17;26.50;;;;;;;;;;5072238;28;20108;-61
2023/10/10 01:28:13;;;;;;;45.55;26.23;;;;;;;;;;5071509;28;19911;-61
2023/10/10 01:30:59;;;;;;;42.67;28.48;;;;;;;;;;5070986;28;20036;-61
2023/10/10 01:33:35;;;;;;;42.60;25.23;;;;;;;;;;5072228;28;20410;-60
2023/10/10 01:36:03;;;;;;;46.83;28.13;;;;;;;;;;5070117;28;20032;-61
2023/10/10 01:38:41;;;;;;;50.28;27.13;;;;;;;;;;5072419;28;20029;-61
2023/10/10 01:41:15;;;;;;;48.53;27.92;;;;;;;;;;5070697;28;20470;-61
2023/10/10 01:43:45;;;;;;;46.13;30.00;;;;;;;;;;5071799;28;20025;-61
2023/10/10 01:46:18;;;;;;;39.45;24.80;;;;;;;;;;5070220;28;20044;-61
2023/10/10 01:48:43;;;;;;;158.90;29.00;;;;;;;;;;5071410;28;20020;-61
2023/10/10 01:51:09;;;;;;;42.30;27.08;;;;;;;;;;5069981;28;20037;-61
2023/10/10 01:53:40;;;;;;;49.40;27.80;;;;;;;;;;5072062;28;20020;-70
2023/10/10 01:56:07;;;;;;;43.13;25.00;;;;;;;;;;5070098;28;20402;-61
2023/10/10 01:58:36;;;;;;;31.13;20.65;;;;;;;;;;5071564;28;20365;-61
2023/10/10 02:01:10;;;;;;;61.80;22.85;;;;;;;;;;5070044;28;20040;-61
2023/10/10 02:03:36;;;;;;;29.35;19.05;;;;;;;;;;5071777;28;20090;-61
2023/10/10 02:06:01;;;;;;;143.90;25.80;;;;;;;;;;5069741;28;20052;-60
2023/10/10 02:08:26;;;;;;;23.20;16.73;;;;;;;;;;5071737;28;20435;-61
2023/10/10 02:10:54;;;;;;;16.77;13.05;;;;;;;;;;5070005;28;20048;-61
2023/10/10 02:13:19;;;;;;;258.73;25.60;;;;;;;;;;5071129;28;20020;-61
2023/10/10 02:15:45;;;;;;;275.40;19.80;;;;;;;;;;5069604;28;20032;-61
2023/10/10 02:18:13;;;;;;;367.97;28.63;;;;;;;;;;5071104;28;20020;-61
2023/10/10 02:23:31;;;;;;;31.35;11.60;;;;;;;;;;5050142;28;20637;-61
2023/10/10 02:26:02;;;;;;;119.80;18.45;;;;;;;;;;5049694;28;20033;-61
2023/10/10 02:28:43;;;;;;;182.82;28.52;;;;;;;;;;5051166;28;20032;-61
2023/10/10 02:31:09;;;;;;;40.22;15.65;;;;;;;;;;5049775;28;20028;-61
2023/10/10 02:33:37;;;;;;;19.02;13.15;;;;;;;;;;5050967;28;20077;-61
2023/10/10 02:36:03;;;;;;;254.27;36.20;;;;;;;;;;5049313;28;20633;-61
2023/10/10 02:38:32;;;;;;;476.05;47.90;;;;;;;;;;5051506;28;20032;-61
2023/10/10 02:46:35;;;;;;;66.70;32.35;;;;;;;;;;5049582;28;20135;-61
2023/10/10 02:49:09;;;;;;;66.40;29.38;;;;;;;;;;5050523;28;20021;-61
2023/10/10 02:51:35;;;;;;;67.03;24.55;;;;;;;;;;5049526;28;20083;-71
2023/10/10 02:54:10;;;;;;;162.77;29.40;;;;;;;;;;5050806;28;20028;-60
2023/10/10 02:56:43;;;;;;;313.60;45.67;;;;;;;;;;5062355;28;20029;-61
2023/10/10 02:59:09;;;;;;;287.13;45.60;;;;;;;;;;5071257;28;20016;-61
2023/10/10 03:07:27;;;;;;;306.25;47.75;;;;;;;;;;5069338;28;20039;-60
2023/10/10 03:12:38;;;;;;;172.75;52.55;;;;;;;;;;5070461;28;20059;-61
2023/10/10 03:15:13;;;;;;;160.85;49.05;;;;;;;;;;5069083;28;20050;-63
2023/10/10 03:20:38;;;;;;;96.00;44.45;;;;;;;;;;5069209;28;20031;-60
2023/10/10 03:26:04;;;;;;;92.78;44.53;;;;;;;;;;5068624;28;20090;-60
2023/10/10 03:28:30;;;;;;;98.70;46.67;;;;;;;;;;5070877;28;20107;-61
2023/10/10 03:31:10;;;;;;;89.80;46.90;;;;;;;;;;5069937;28;20097;-61
2023/10/10 03:38:57;;;;;;;95.18;48.53;;;;;;;;;;5074563;28;20029;-61
2023/10/10 05:25:22;;;;;;;99.32;49.85;;;;;;;;;;5056763;28;20478;-58
2023/10/10 05:27:48;;;;;;;108.30;51.05;;;;;;;;;;5058248;28;20028;-58
2023/10/10 05:30:25;;;;;;;120.07;54.20;;;;;;;;;;5056112;28;20090;-58
2023/10/10 05:33:03;;;;;;;123.13;55.72;;;;;;;;;;5053083;28;20025;-58
2023/10/10 05:35:29;;;;;;;131.07;56.42;;;;;;;;;;5049963;28;20045;-58
2023/10/10 05:37:55;;;;;;;132.13;55.47;;;;;;;;;;5051962;28;20024;-58
2023/10/10 05:40:20;;;;;;;145.20;62.75;;;;;;;;;;5050278;28;20021;-58
2023/10/10 05:42:45;;;;;;;147.83;55.90;;;;;;;;;;5050909;28;20060;-59
2023/10/10 05:45:13;;;;;;;164.75;62.60;;;;;;;;;;5050329;28;20470;-58
2023/10/10 05:47:39;;;;;;;148.25;55.08;;;;;;;;;;5051476;28;20511;-58
2023/10/10 05:50:05;;;;;;;147.57;54.80;;;;;;;;;;5050236;28;20013;-58
2023/10/10 05:52:30;;;;;;;153.68;56.80;;;;;;;;;;5052060;28;20021;-58
2023/10/10 05:54:55;;;;;;;161.85;54.05;;;;;;;;;;5049465;28;20020;-58
2023/10/10 05:57:20;;;;;;;140.07;54.25;;;;;;;;;;5051733;28;20123;-58
2023/10/10 05:59:45;;;;;;;156.37;57.53;;;;;;;;;;5051531;28;20104;-58
2023/10/10 06:02:11;;;;;;;144.15;52.42;;;;;;;;;;5049751;28;20098;-60
2023/10/10 06:04:36;;;;;;;153.00;51.78;;;;;;;;;;5050434;28;20045;-59
2023/10/10 06:07:03;;;;;;;163.30;54.03;;;;;;;;;;5065547;28;20047;-58
2023/10/10 06:09:33;;;;;;;148.50;49.97;;;;;;;;;;5070148;28;20024;-59
2023/10/10 06:12:04;;;;;;;128.43;52.25;;;;;;;;;;5057031;28;20179;-58
2023/10/10 06:14:29;;;;;;;119.43;47.70;;;;;;;;;;5051719;28;20024;-58
2023/10/10 06:16:54;;;;;;;148.40;48.80;;;;;;;;;;5048809;28;20033;-58
2023/10/10 06:19:20;;;;;;;98.13;44.00;;;;;;;;;;5064887;28;20020;-59
2023/10/10 06:21:46;;;;;;;119.82;48.10;;;;;;;;;;5069306;28;20039;-57
2023/10/10 06:24:12;;;;;;;146.07;56.90;;;;;;;;;;5070356;28;20099;-58
2023/10/10 06:26:45;;;;;;;131.52;52.28;;;;;;;;;;5068856;28;20455;-58
2023/10/10 06:29:12;;;;;;;123.82;51.63;;;;;;;;;;5071429;28;20016;-58
2023/10/10 06:31:42;;;;;;;134.85;50.40;;;;;;;;;;5069315;28;20024;-58
2023/10/10 06:34:19;;;;;;;177.70;55.53;;;;;;;;;;5071281;28;20419;-58
2023/10/10 06:36:47;;;;;;;163.95;57.67;;;;;;;;;;5069473;28;20119;-58
2023/10/10 06:41:48;;;;;;;168.52;56.88;;;;;;;;;;5069478;28;20024;-58
2023/10/10 06:44:13;;;;;;;158.85;55.85;;;;;;;;;;5070803;28;20047;-58
2023/10/10 06:46:40;;;;;;;161.60;58.90;;;;;;;;;;5069042;28;20048;-58
2023/10/10 06:49:05;;;;;;;148.65;57.33;;;;;;;;;;5070898;28;20088;-59
2023/10/10 06:51:30;;;;;;;163.65;60.67;;;;;;;;;;5069408;28;20136;-59
2023/10/10 06:53:56;;;;;;;163.10;60.90;;;;;;;;;;5070151;28;20031;-58
2023/10/10 06:56:44;;;;;;;157.02;61.20;;;;;;;;;;5065928;28;20028;-58
2023/10/10 06:59:09;;;;;;;167.18;64.60;;;;;;;;;;5069259;28;20063;-58
2023/10/10 07:01:34;;;;;;;179.27;69.68;;;;;;;;;;5053780;28;20056;-58
2023/10/10 07:04:04;;;;;;;188.38;76.28;;;;;;;;;;5050555;28;20068;-58
2023/10/10 07:06:29;;;;;;;172.25;72.82;;;;;;;;;;5048386;28;20056;-58
2023/10/10 07:09:57;;;;;;;172.03;71.97;;;;;;;;;;5049861;28;20052;-58
2023/10/10 07:11:49;;;;;;;161.60;69.50;;;;;;;;;;5043698;28;20130;-59
2023/10/10 07:14:16;;;;;;;165.60;74.95;;;;;;;;;;5058409;28;20573;-58
2023/10/10 07:16:42;;;;;;;174.23;76.72;;;;;;;;;;5061917;28;20029;-58
2023/10/10 07:19:19;;;;;;;169.20;72.57;;;;;;;;;;5055341;28;20087;-60
2023/10/10 07:21:45;;;;;;;153.63;70.60;;;;;;;;;;5051417;28;20033;-63
2023/10/10 07:24:13;;;;;;;166.55;83.30;;;;;;;;;;5049754;28;20075;-58
2023/10/10 07:26:42;;;;;;;167.63;83.22;;;;;;;;;;5048944;28;20040;-58
2023/10/10 07:29:26;;;;;;;179.32;84.72;;;;;;;;;;5050298;28;20506;-58
2023/10/10 07:31:53;;;;;;;168.38;84.57;;;;;;;;;;5048309;28;20119;-59
2023/10/10 07:34:18;;;;;;;172.07;84.93;;;;;;;;;;5050423;28;20049;-58
2023/10/10 07:36:43;;;;;;;174.77;83.60;;;;;;;;;;5048825;28;20064;-58
2023/10/10 07:41:53;;;;;;;161.25;84.07;;;;;;;;;;5048808;28;20526;-58
2023/10/10 07:44:22;;;;;;;148.02;82.20;;;;;;;;;;5050482;28;20013;-58
2023/10/10 07:47:19;;;;;;;157.00;83.30;;;;;;;;;;5048031;28;20056;-58
2023/10/10 07:49:33;;;;;;;137.02;77.13;;;;;;;;;;5050206;28;20183;-58
2023/10/10 07:52:02;;;;;;;130.02;77.78;;;;;;;;;;5048114;28;20034;-59
2023/10/10 07:54:38;;;;;;;111.85;72.93;;;;;;;;;;5050035;28;20143;-58
2023/10/10 07:57:07;;;;;;;111.63;65.85;;;;;;;;;;5048126;28;20033;-58
2023/10/10 07:59:36;;;;;;;112.25;67.28;;;;;;;;;;5049926;28;20025;-59
2023/10/10 08:02:19;;;;;;;117.43;68.15;;;;;;;;;;5048474;28;20088;-58
2023/10/10 08:04:49;;;;;;;113.05;73.22;;;;;;;;;;5049805;28;20480;-58
2023/10/10 08:07:18;;;;;;;114.00;72.20;;;;;;;;;;5054493;28;20040;-58
2023/10/10 08:09:45;;;;;;;90.72;63.00;;;;;;;;;;5069248;28;20052;-57
2023/10/10 08:12:11;;;;;;;91.17;60.80;;;;;;;;;;5048356;28;20049;-58
2023/10/10 08:14:39;;;;;;;87.88;59.13;;;;;;;;;;5049931;28;20028;-58
2023/10/10 08:17:18;;;;;;;79.32;57.65;;;;;;;;;;5049715;28;20044;-58
2023/10/10 08:19:43;;;;;;;79.03;55.78;;;;;;;;;;5053277;28;20108;-58
2023/10/10 08:22:12;;;;;;;63.45;49.30;;;;;;;;;;5051636;28;20136;-58
2023/10/10 08:24:39;;;;;;;;;;;;;;;;;;5051175;28;20020;-58
2023/10/10 08:27:09;;;;;;;64.95;45.85;;;;;;;;;;5051021;28;19996;-58
2023/10/10 08:29:35;;;;;;;60.35;43.70;;;;;;;;;;5051770;28;20018;-58
2023/10/10 08:32:00;;;;;;;62.00;41.80;;;;;;;;;;5051478;28;20106;-58
2023/10/10 08:34:25;;;;;;;54.50;38.00;;;;;;;;;;5053149;28;20460;-58
2023/10/10 08:36:51;;;;;;;50.47;37.23;;;;;;;;;;5051351;28;20061;-58
2023/10/10 08:41:42;;;;;;;42.83;34.27;;;;;;;;;;5051711;28;20053;-58
2023/10/10 08:44:14;;;;;;;45.95;34.92;;;;;;;;;;5052327;28;20024;-58
2023/10/10 08:46:46;;;;;;;43.78;30.92;;;;;;;;;;5051701;28;20557;-65
2023/10/10 08:49:13;;;;;;;40.72;27.45;;;;;;;;;;5053274;28;20140;-58
2023/10/10 08:51:39;;;;;;;31.58;24.50;;;;;;;;;;5051381;28;20044;-58
2023/10/10 08:54:12;;;;;;;35.97;24.77;;;;;;;;;;5052763;28;20025;-59
2023/10/10 08:56:40;;;;;;;32.20;24.35;;;;;;;;;;5051674;28;20036;-58
2023/10/10 08:59:06;;;;;;;32.58;23.10;;;;;;;;;;5052319;28;20045;-58
2023/10/10 09:01:35;;;;;;;49.92;23.92;;;;;;;;;;5051290;28;20508;-58
2023/10/10 09:04:03;;;;;;;23.42;19.85;;;;;;;;;;5052650;28;20104;-58
2023/10/10 09:06:33;;;;;;;30.67;20.77;;;;;;;;;;5050957;28;20427;-58
2023/10/10 09:09:00;;;;;;;28.50;17.70;;;;;;;;;;5052903;28;20029;-58
2023/10/10 09:11:25;;;;;;;27.45;20.65;;;;;;;;;;5051241;28;20060;-58
2023/10/10 09:13:54;;;;;;;23.17;18.43;;;;;;;;;;5052027;28;20063;-58
2023/10/10 09:16:53;;;;;;;30.20;17.23;;;;;;;;;;5062248;28;20562;-58
2023/10/10 09:19:19;;;;;;;37.20;21.30;;;;;;;;;;5059744;28;20029;-58
2023/10/10 09:21:50;;;;;;;26.85;19.92;;;;;;;;;;5070300;28;20038;-58
2023/10/10 09:24:26;;;;;;;25.80;18.70;;;;;;;;;;5072289;28;20049;-58
2023/10/10 09:26:56;;;;;;;22.17;16.17;;;;;;;;;;5069666;28;20028;-58
2023/10/10 09:29:30;;;;;;;26.52;16.27;;;;;;;;;;5071530;28;20059;-58
2023/10/10 09:31:59;;;;;;;20.35;16.17;;;;;;;;;;5070521;28;20067;-58
2023/10/10 09:34:28;;;;;;;22.60;15.90;;;;;;;;;;5072052;28;20495;-58
2023/10/10 09:36:57;;;;;;;20.45;14.75;;;;;;;;;;5070281;28;20427;-59
2023/10/10 09:39:36;;;;;;;19.30;15.07;;;;;;;;;;5072437;28;20020;-61
2023/10/10 09:42:07;;;;;;;18.88;13.88;;;;;;;;;;5070239;28;20040;-59
2023/10/10 09:44:53;;;;;;;18.63;14.25;;;;;;;;;;5071652;28;20460;-58
2023/10/10 09:47:40;;;;;;;17.75;12.45;;;;;;;;;;5070759;28;20403;-58
2023/10/10 09:52:58;;;;;;;21.60;14.38;;;;;;;;;;5071785;28;20033;-59
2023/10/10 10:00:34;;;;;;;21.50;12.68;;;;;;;;;;5070432;28;20369;-57
2023/10/10 10:03:25;;;;;;;22.00;12.43;;;;;;;;;;5071640;28;20403;-58
2023/10/10 10:05:58;;;;;;;17.75;11.13;;;;;;;;;;5069341;28;20033;-58
2023/10/10 10:08:23;;;;;;;19.08;13.32;;;;;;;;;;5071669;28;20088;-57
2023/10/10 10:11:09;;;;;;;16.25;12.63;;;;;;;;;;5068540;28;20033;-58
2023/10/10 10:13:37;;;;;;;24.83;14.18;;;;;;;;;;5069483;28;20032;-58
2023/10/10 10:16:32;;;;;;;14.80;9.98;;;;;;;;;;5069367;28;20382;-58
2023/10/10 10:19:11;;;;;;;15.60;10.85;;;;;;;;;;5069889;28;20119;-58
2023/10/10 10:21:51;;;;;;;23.45;14.02;;;;;;;;;;5066271;28;20120;-58
2023/10/10 10:24:17;;;;;;;17.75;13.45;;;;;;;;;;5070539;28;20361;-58
2023/10/10 10:26:43;;;;;;;19.85;11.48;;;;;;;;;;5069108;28;20035;-58
2023/10/10 10:29:22;;;;;;;18.05;12.80;;;;;;;;;;5069286;28;20108;-58
2023/10/10 10:31:51;;;;;;;23.27;12.55;;;;;;;;;;5067448;28;20032;-58
2023/10/10 10:34:31;;;;;;;17.58;12.45;;;;;;;;;;5070100;28;20040;-58
2023/10/10 10:37:06;;;;;;;19.15;11.82;;;;;;;;;;5066705;28;20044;-58
2023/10/10 10:39:35;;;;;;;25.92;13.38;;;;;;;;;;5070412;28;20020;-58
2023/10/10 10:42:00;;;;;;;17.05;10.63;;;;;;;;;;5066230;28;20127;-58
2023/10/10 10:44:29;;;;;;;18.60;12.57;;;;;;;;;;5050731;28;20108;-59
2023/10/10 10:46:56;;;;;;;16.20;12.43;;;;;;;;;;5045234;28;20040;-58
2023/10/10 10:49:22;;;;;;;15.77;12.82;;;;;;;;;;5052104;28;20023;-58
2023/10/10 10:51:50;;;;;;;21.52;11.68;;;;;;;;;;5064888;28;20040;-58
2023/10/10 10:54:37;;;;;;;19.08;13.00;;;;;;;;;;5066773;28;20369;-58
2023/10/10 10:57:03;;;;;;;;;;;;;;;;;;5068452;28;20037;-58
2023/10/10 10:59:44;;;;;;;17.77;12.70;;;;;;;;;;5070585;28;19904;-59
2023/10/10 11:02:16;;;;;;;17.08;13.48;;;;;;;;;;5069233;28;20037;-59
2023/10/10 11:04:49;;;;;;;21.40;12.70;;;;;;;;;;5070352;28;20031;-59
2023/10/10 11:07:26;;;;;;;13.75;10.73;;;;;;;;;;5068841;28;20499;-59
2023/10/10 11:09:54;;;;;;;15.77;11.07;;;;;;;;;;5065506;28;20031;-59
2023/10/10 11:12:28;;;;;;;16.30;12.18;;;;;;;;;;5069906;28;20375;-58
2023/10/10 11:14:54;;;;;;;15.38;12.50;;;;;;;;;;5067320;28;20016;-57
2023/10/10 11:17:19;;;;;;;18.08;11.98;;;;;;;;;;5070450;28;20460;-58
2023/10/10 11:19:53;;;;;;;14.00;10.43;;;;;;;;;;5068138;28;20020;-58
2023/10/10 11:25:04;;;;;;;18.95;12.93;;;;;;;;;;5068773;28;20081;-58
2023/10/10 11:27:32;;;;;;;14.80;11.18;;;;;;;;;;5069535;28;20659;-58
2023/10/10 11:30:01;;;;;;;19.80;12.15;;;;;;;;;;5068408;28;20081;-58
2023/10/10 11:32:36;;;;;;;16.80;12.23;;;;;;;;;;5070189;28;20028;-58
2023/10/10 11:37:47;;;;;;;25.65;13.23;;;;;;;;;;5070348;28;20452;-58
2023/10/10 11:40:19;;;;;;;19.85;12.80;;;;;;;;;;5068864;28;20531;-58
2023/10/10 11:42:47;;;;;;;17.08;11.25;;;;;;;;;;5069543;28;20028;-59
2023/10/10 11:45:18;;;;;;;14.55;12.05;;;;;;;;;;5068576;28;20438;-58
2023/10/10 11:47:44;;;;;;;19.67;12.63;;;;;;;;;;5066700;28;20017;-58
2023/10/10 11:50:12;;;;;;;19.98;11.82;;;;;;;;;;5064165;28;20043;-58
2023/10/10 11:52:50;;;;;;;16.98;11.30;;;;;;;;;;5052245;28;20040;-58
2023/10/10 11:55:17;;;;;;;25.20;14.38;;;;;;;;;;5036156;28;20029;-58
2023/10/10 11:57:44;;;;;;;13.93;10.32;;;;;;;;;;5053004;28;20044;-58
2023/10/10 12:00:11;;;;;;;13.20;10.98;;;;;;;;;;5066627;28;20036;-69
2023/10/10 12:02:43;;;;;;;14.63;12.43;;;;;;;;;;5073805;28;20021;-58
2023/10/10 12:07:53;;;;;;;15.27;11.75;;;;;;;;;;5073645;28;20066;-58
2023/10/10 12:10:21;;;;;;;18.50;12.80;;;;;;;;;;5072287;28;20028;-58
2023/10/10 12:12:47;;;;;;;13.82;10.05;;;;;;;;;;5072931;28;20050;-58
2023/10/10 12:15:19;;;;;;;19.15;10.85;;;;;;;;;;5060671;28;20104;-58
2023/10/10 12:17:44;;;;;;;16.90;11.52;;;;;;;;;;5051993;28;20502;-58
2023/10/10 12:20:09;;;;;;;19.10;10.40;;;;;;;;;;5051391;28;20037;-58
2023/10/10 12:22:34;;;;;;;30.33;11.55;;;;;;;;;;5053344;28;20431;-58
2023/10/10 12:25:00;;;;;;;18.57;10.27;;;;;;;;;;5052837;28;20521;-58
2023/10/10 12:27:29;;;;;;;27.45;13.73;;;;;;;;;;5072999;28;20025;-58
2023/10/10 12:29:56;;;;;;;19.30;12.02;;;;;;;;;;5071617;28;20017;-58
2023/10/10 12:32:22;;;;;;;18.05;10.85;;;;;;;;;;5071155;28;20356;-58
2023/10/10 12:34:47;;;;;;;16.05;10.90;;;;;;;;;;5051442;28;20049;-58
2023/10/10 12:37:15;;;;;;;20.80;11.23;;;;;;;;;;5072889;28;20016;-58
2023/10/10 12:39:41;;;;;;;14.18;10.85;;;;;;;;;;5073284;28;20143;-59
2023/10/10 12:42:07;;;;;;;14.82;9.77;;;;;;;;;;5070770;28;20033;-59
2023/10/10 12:44:32;;;;;;;23.55;12.77;;;;;;;;;;5072852;28;20016;-59
2023/10/10 12:46:59;;;;;;;17.55;10.20;;;;;;;;;;5070966;28;20033;-58
2023/10/10 12:49:28;;;;;;;17.30;9.35;;;;;;;;;;5072359;28;20518;-59
2023/10/10 12:51:57;;;;;;;13.38;9.82;;;;;;;;;;5070978;28;20082;-59
2023/10/10 12:54:27;;;;;;;17.08;9.60;;;;;;;;;;5072836;28;20414;-59
2023/10/10 12:56:59;;;;;;;20.15;9.80;;;;;;;;;;5070678;28;20031;-59
2023/10/10 12:59:28;;;;;;;17.52;9.48;;;;;;;;;;5073062;28;20025;-59
2023/10/10 13:02:00;;;;;;;14.23;8.93;;;;;;;;;;5070622;28;20050;-59
2023/10/10 13:04:36;;;;;;;16.30;9.93;;;;;;;;;;5070997;28;20021;-57
2023/10/10 13:07:04;;;;;;;16.05;9.85;;;;;;;;;;5068855;28;20120;-58
2023/10/10 13:09:32;;;;;;;18.98;9.52;;;;;;;;;;5062660;28;20063;-58
2023/10/10 13:11:58;;;;;;;17.92;10.07;;;;;;;;;;5049075;28;20036;-58
2023/10/10 13:14:25;;;;;;;15.67;9.80;;;;;;;;;;5050328;28;20055;-58
2023/10/10 13:19:23;;;;;;;16.23;9.40;;;;;;;;;;5052024;28;20060;-58
2023/10/10 13:21:48;;;;;;;12.18;8.82;;;;;;;;;;5050577;28;20484;-58
2023/10/10 13:24:14;;;;;;;14.80;8.38;;;;;;;;;;5052185;28;20029;-58
2023/10/10 13:26:40;;;;;;;20.48;9.43;;;;;;;;;;5066269;28;20071;-58
2023/10/10 13:29:08;;;;;;;15.98;9.02;;;;;;;;;;5071819;28;20024;-59
2023/10/10 13:31:33;;;;;;;11.60;8.95;;;;;;;;;;5070668;28;20037;-58
2023/10/10 13:33:59;;;;;;;11.47;8.23;;;;;;;;;;5071229;28;20041;-58
2023/10/10 13:36:25;;;;;;;18.83;11.18;;;;;;;;;;5070213;28;20439;-58
2023/10/10 13:38:53;;;;;;;16.75;9.95;;;;;;;;;;5071633;28;20005;-60
2023/10/10 13:41:19;;;;;;;15.55;10.05;;;;;;;;;;5070204;28;20044;-58
2023/10/10 13:43:46;;;;;;;15.90;9.73;;;;;;;;;;5071570;28;20107;-59
2023/10/10 13:46:12;;;;;;;12.27;8.05;;;;;;;;;;5070103;28;20555;-66
2023/10/10 13:48:37;;;;;;;21.33;8.85;;;;;;;;;;5071475;28;20150;-60
2023/10/10 13:51:04;;;;;;;17.90;8.80;;;;;;;;;;5069816;28;20097;-59
2023/10/10 13:53:31;;;;;;;11.63;8.67;;;;;;;;;;5071740;28;20455;-59
2023/10/10 13:56:00;;;;;;;19.13;9.40;;;;;;;;;;5069565;28;20636;-58
2023/10/10 13:58:25;;;;;;;17.42;8.30;;;;;;;;;;5071698;28;20099;-58
2023/10/10 14:00:55;;;;;;;14.68;9.93;;;;;;;;;;5069928;28;20121;-58
2023/10/10 14:03:28;;;;;;;16.88;8.82;;;;;;;;;;5070652;28;20017;-58
2023/10/10 14:06:12;;;;;;;12.57;8.88;;;;;;;;;;5069656;28;20119;-58
2023/10/10 14:08:37;;;;;;;15.82;8.88;;;;;;;;;;5071473;28;20052;-58
2023/10/10 14:11:03;;;;;;;11.80;8.13;;;;;;;;;;5069045;28;20118;-58
2023/10/10 14:13:29;;;;;;;13.15;8.57;;;;;;;;;;5071213;28;20024;-71
2023/10/10 14:15:54;;;;;;;14.80;8.57;;;;;;;;;;5069051;28;20036;-58
2023/10/10 14:18:24;;;;;;;18.08;8.88;;;;;;;;;;5070559;28;20021;-58
2023/10/10 14:20:50;;;;;;;11.20;7.50;;;;;;;;;;5069546;28;20028;-58
2023/10/10 14:23:22;;;;;;;14.50;9.70;;;;;;;;;;5071197;28;20024;-58
2023/10/10 14:25:49;;;;;;;14.30;9.27;;;;;;;;;;5068892;28;20052;-58
2023/10/10 14:28:16;;;;;;;17.27;8.20;;;;;;;;;;5071124;28;20051;-59
2023/10/10 14:30:48;;;;;;;17.75;10.35;;;;;;;;;;5069287;28;20060;-58
2023/10/10 14:33:14;;;;;;;11.32;7.30;;;;;;;;;;5068811;28;20020;-58
2023/10/10 14:35:39;;;;;;;14.10;9.13;;;;;;;;;;5069074;28;20043;-58
2023/10/10 14:38:05;;;;;;;23.92;8.85;;;;;;;;;;5070753;28;20040;-58
2023/10/10 14:40:33;;;;;;;15.17;8.17;;;;;;;;;;5067663;28;20116;-58
2023/10/10 14:42:58;;;;;;;14.85;7.75;;;;;;;;;;5070736;28;20430;-58
2023/10/10 14:45:24;;;;;;;12.48;8.95;;;;;;;;;;5069465;28;20085;-58
2023/10/10 14:47:51;;;;;;;13.38;8.43;;;;;;;;;;5070622;28;20024;-58
2023/10/10 14:50:23;;;;;;;13.38;9.77;;;;;;;;;;5058290;28;20418;-58
2023/10/10 14:52:48;;;;;;;19.45;8.57;;;;;;;;;;5066037;28;20033;-58
2023/10/10 14:55:23;;;;;;;18.93;9.13;;;;;;;;;;5067663;28;20448;-59
2023/10/10 14:57:49;;;;;;;16.60;11.50;;;;;;;;;;5069651;28;20059;-60
2023/10/10 15:00:18;;;;;;;12.25;8.77;;;;;;;;;;5068751;28;20601;-59
2023/10/10 15:02:43;;;;;;;13.13;8.82;;;;;;;;;;5069192;28;20029;-58
2023/10/10 15:05:10;;;;;;;17.20;10.18;;;;;;;;;;5068900;28;20047;-59
2023/10/10 15:07:41;;;;;;;15.23;7.95;;;;;;;;;;5070909;28;20020;-59
2023/10/10 15:10:06;;;;;;;21.27;11.23;;;;;;;;;;5068515;28;20426;-59
2023/10/10 15:12:33;;;;;;;21.30;10.00;;;;;;;;;;5070752;28;20023;-59
2023/10/10 15:14:58;;;;;;;15.55;10.57;;;;;;;;;;5068461;28;20033;-58
2023/10/10 15:17:26;;;;;;;12.80;8.07;;;;;;;;;;5070001;28;20013;-58
2023/10/10 15:19:52;;;;;;;16.77;10.75;;;;;;;;;;5057587;28;20464;-63
2023/10/10 15:22:18;;;;;;;14.40;8.37;;;;;;;;;;5070568;28;20095;-58
2023/10/10 15:24:49;;;;;;;17.60;9.35;;;;;;;;;;5069087;28;20031;-59
2023/10/10 15:27:15;;;;;;;14.85;9.38;;;;;;;;;;5071150;28;20033;-66
2023/10/10 15:29:42;;;;;;;13.40;9.45;;;;;;;;;;5074508;28;20036;-58
2023/10/10 15:32:07;;;;;;;14.80;8.52;;;;;;;;;;5071827;28;20040;-58
2023/10/10 15:34:32;;;;;;;22.50;9.53;;;;;;;;;;5073858;28;20090;-58
2023/10/10 15:37:00;;;;;;;16.97;11.27;;;;;;;;;;5058525;28;20462;-58
2023/10/10 15:39:25;;;;;;;19.42;11.02;;;;;;;;;;5052211;28;20041;-58
2023/10/10 15:41:50;;;;;;;16.23;9.43;;;;;;;;;;5052908;28;20069;-58
2023/10/10 15:44:15;;;;;;;15.45;10.60;;;;;;;;;;5051319;28;20385;-58
2023/10/10 15:46:43;;;;;;;15.20;9.57;;;;;;;;;;5051551;28;20041;-58
2023/10/10 15:49:10;;;;;;;12.63;9.60;;;;;;;;;;5054073;28;20037;-59
2023/10/10 15:51:38;;;;;;;12.25;8.70;;;;;;;;;;5052367;28;20029;-59
2023/10/10 15:54:04;;;;;;;16.48;9.82;;;;;;;;;;5051554;28;20021;-58
2023/10/10 15:56:30;;;;;;;15.70;9.50;;;;;;;;;;5052349;28;20089;-58
2023/10/10 15:58:56;;;;;;;17.05;9.65;;;;;;;;;;5052860;28;20017;-58
2023/10/10 16:01:27;;;;;;;19.83;11.65;;;;;;;;;;5065048;28;20039;-65
2023/10/10 16:03:52;;;;;;;14.20;8.82;;;;;;;;;;5073672;28;20107;-58
2023/10/10 16:06:18;;;;;;;18.40;11.75;;;;;;;;;;5071763;28;20132;-58
2023/10/10 16:08:47;;;;;;;14.55;10.38;;;;;;;;;;5056804;28;20025;-58
2023/10/10 16:11:13;;;;;;;18.17;10.52;;;;;;;;;;5071830;28;20048;-58
2023/10/10 16:13:38;;;;;;;22.10;10.23;;;;;;;;;;5073541;28;20029;-59
2023/10/10 16:16:06;;;;;;;45.15;10.60;;;;;;;;;;5063178;28;20043;-58
2023/10/10 16:18:33;;;;;;;15.75;9.40;;;;;;;;;;5072025;28;20387;-59
2023/10/10 16:20:58;;;;;;;15.07;10.43;;;;;;;;;;5069236;28;20495;-58
2023/10/10 16:23:24;;;;;;;15.35;9.30;;;;;;;;;;5071254;28;20114;-58
2023/10/10 16:25:50;;;;;;;12.40;8.20;;;;;;;;;;5071088;28;20391;-59
2023/10/10 16:28:15;;;;;;;21.60;9.63;;;;;;;;;;5072659;28;20020;-57
2023/10/10 16:30:41;;;;;;;16.63;9.33;;;;;;;;;;5071427;28;20098;-57
2023/10/10 16:33:08;;;;;;;16.35;8.13;;;;;;;;;;5072973;28;20419;-58
2023/10/10 16:35:33;;;;;;;12.80;9.23;;;;;;;;;;5070435;28;20355;-57
2023/10/10 16:38:01;;;;;;;18.02;9.05;;;;;;;;;;5071924;28;20023;-58
2023/10/10 16:40:29;;;;;;;15.57;8.70;;;;;;;;;;5071257;28;20032;-58
2023/10/10 16:42:56;;;;;;;13.35;9.77;;;;;;;;;;5072562;28;20604;-63
2023/10/10 16:45:22;;;;;;;17.40;8.88;;;;;;;;;;5071491;28;20029;-58
2023/10/10 16:47:47;;;;;;;12.20;8.32;;;;;;;;;;5072473;28;20078;-57
2023/10/10 16:50:13;;;;;;;13.13;8.60;;;;;;;;;;5060843;28;20546;-58
2023/10/10 16:52:38;;;;;;;28.25;10.45;;;;;;;;;;5052126;28;20035;-59
2023/10/10 16:55:10;;;;;;;12.53;9.10;;;;;;;;;;5053788;28;20032;-58
2023/10/10 16:57:35;;;;;;;19.77;10.65;;;;;;;;;;5066992;28;20554;-58
2023/10/10 17:00:01;;;;;;;12.45;8.80;;;;;;;;;;5054494;28;20026;-58
2023/10/10 17:02:27;;;;;;;14.05;8.85;;;;;;;;;;5071284;28;20033;-58
2023/10/10 17:04:53;;;;;;;15.88;8.52;;;;;;;;;;5048366;28;20029;-58
2023/10/10 17:07:18;;;;;;;13.85;7.55;;;;;;;;;;5050929;28;20033;-58
2023/10/10 17:09:43;;;;;;;18.92;9.07;;;;;;;;;;5051908;28;20416;-59